Time;durP1;ratioP1;P1;durP2;ratioP2;P2;SDS_P1;SDS_P2;PMS_P1;PMS_P2;Temp;Humidity;BMP_temperature;BMP_pressure;BME280_temperature;BME280_humidity;BME280_pressure;Samples;Min_cycle;Max_cycle;Signal;HPM_P1;HPM_P2
2021/10/25 00:00:15;;;;;;;63.00;41.90;;;;;;;1.16;90.38;100234.29;112744;1192;60959;-85
2021/10/25 00:03:01;;;;;;;63.80;41.20;;;;;;;1.10;90.46;100230.83;112495;1192;61103;-86
2021/10/25 00:05:28;;;;;;;59.90;40.20;;;;;;;1.05;90.30;100231.40;112846;1192;65839;-85
2021/10/25 00:07:55;;;;;;;64.50;40.10;;;;;;;1.01;90.37;100233.52;112502;1193;60956;-85
2021/10/25 00:10:21;;;;;;;64.40;41.80;;;;;;;0.98;90.50;100235.48;112656;1193;62330;-85
2021/10/25 00:12:48;;;;;;;55.50;39.90;;;;;;;0.95;90.44;100234.10;112772;1193;61032;-87
2021/10/25 00:15:15;;;;;;;54.40;40.20;;;;;;;0.91;90.45;100233.27;112785;1193;61064;-86
2021/10/25 00:17:42;;;;;;;57.60;39.60;;;;;;;0.86;90.42;100233.30;112559;1193;65882;-86
2021/10/25 00:20:10;;;;;;;62.20;41.30;;;;;;;0.83;90.51;100228.60;112791;1193;61129;-86
2021/10/25 00:22:36;;;;;;;57.50;39.00;;;;;;;0.80;90.59;100231.41;112430;1194;63703;-86
2021/10/25 00:25:03;;;;;;;57.90;40.00;;;;;;;0.77;90.58;100236.16;112379;1192;60969;-86
2021/10/25 00:27:30;;;;;;;58.50;39.80;;;;;;;0.75;90.64;100233.55;112409;1193;61080;-86
2021/10/25 00:29:56;;;;;;;58.00;39.70;;;;;;;0.73;90.67;100233.73;112701;1192;64379;-87
2021/10/25 00:32:23;;;;;;;56.10;38.30;;;;;;;0.71;90.90;100234.63;112523;1193;61138;-86
2021/10/25 00:34:50;;;;;;;57.80;39.90;;;;;;;0.68;90.81;100232.19;112680;1192;61052;-86
2021/10/25 00:37:17;;;;;;;62.50;38.00;;;;;;;0.65;91.02;100229.23;112597;1193;61094;-83
2021/10/25 00:39:43;;;;;;;60.70;38.20;;;;;;;0.65;91.12;100228.89;112655;1184;61126;-83
2021/10/25 00:42:10;;;;;;;57.50;41.00;;;;;;;0.65;91.15;100226.45;112697;1193;61039;-85
2021/10/25 00:44:36;;;;;;;60.20;41.10;;;;;;;0.66;91.51;100221.38;112531;1193;61006;-86
2021/10/25 00:47:03;;;;;;;67.50;43.00;;;;;;;0.68;91.48;100217.51;112629;1193;60930;-86
2021/10/25 00:49:29;;;;;;;64.60;43.10;;;;;;;0.71;91.52;100213.99;112613;1192;60934;-86
2021/10/25 00:51:56;;;;;;;59.10;42.30;;;;;;;0.71;91.46;100208.92;112675;1193;61081;-85
2021/10/25 00:54:22;;;;;;;58.70;40.00;;;;;;;0.69;91.42;100214.70;112572;1193;64354;-85
2021/10/25 00:56:49;;;;;;;55.60;39.30;;;;;;;0.66;91.43;100212.11;112386;1193;61068;-85
2021/10/25 00:59:16;;;;;;;58.60;37.70;;;;;;;0.64;91.54;100209.84;112554;1192;63859;-85
2021/10/25 01:01:43;;;;;;;56.70;38.50;;;;;;;0.62;91.63;100207.95;112613;1193;60956;-86
2021/10/25 01:04:11;;;;;;;54.80;39.90;;;;;;;0.61;91.77;100211.61;112679;1193;60905;-84
2021/10/25 01:06:38;;;;;;;55.20;37.50;;;;;;;0.60;91.77;100208.29;112699;1192;65901;-85
2021/10/25 01:09:06;;;;;;;54.70;36.00;;;;;;;0.56;91.46;100206.74;112639;1192;60948;-87
2021/10/25 01:11:34;;;;;;;54.20;36.00;;;;;;;0.52;91.51;100206.25;112618;1192;62528;-86
2021/10/25 01:14:02;;;;;;;51.40;35.20;;;;;;;0.50;91.66;100206.45;112355;1193;61100;-86
2021/10/25 01:16:29;;;;;;;52.00;36.60;;;;;;;0.48;91.66;100204.02;112309;1193;61231;-86
2021/10/25 01:18:56;;;;;;;50.00;35.40;;;;;;;0.43;91.53;100205.08;112658;1192;65680;-86
2021/10/25 01:21:23;;;;;;;49.40;34.60;;;;;;;0.37;91.45;100205.13;112601;1193;61071;-85
2021/10/25 01:23:51;;;;;;;54.40;37.60;;;;;;;0.35;91.75;100203.56;112587;1192;64976;-84
2021/10/25 01:26:21;;;;;;;54.30;35.30;;;;;;;0.36;91.98;100198.84;112695;1192;61061;-86
2021/10/25 01:28:48;;;;;;;;;;;;;;;0.36;92.03;100193.41;112737;1193;61089;-85
2021/10/25 01:31:17;;;;;;;48.40;36.70;;;;;;;0.35;91.99;100192.89;112710;1192;66015;-86
2021/10/25 01:33:45;;;;;;;54.70;39.90;;;;;;;0.31;91.82;100190.31;112706;1192;60946;-87
2021/10/25 01:36:13;;;;;;;57.10;39.00;;;;;;;0.27;91.71;100189.63;112684;1192;72439;-87
2021/10/25 01:38:40;;;;;;;58.40;39.50;;;;;;;0.23;91.83;100187.90;112653;1192;61024;-85
2021/10/25 01:41:08;;;;;;;51.80;38.20;;;;;;;0.20;91.90;100190.70;112668;1192;61026;-83
2021/10/25 01:43:36;;;;;;;57.70;39.80;;;;;;;0.17;91.84;100186.53;112358;1193;64330;-85
2021/10/25 01:46:05;;;;;;;54.80;37.20;;;;;;;0.14;91.91;100182.19;112669;1192;61050;-85
2021/10/25 01:48:32;;;;;;;59.30;38.40;;;;;;;0.14;92.05;100181.65;112652;1193;72508;-83
2021/10/25 01:50:59;;;;;;;58.40;38.60;;;;;;;0.15;92.06;100178.34;112620;1192;61087;-83
2021/10/25 01:53:27;;;;;;;57.30;41.00;;;;;;;0.15;92.21;100176.41;112604;1193;61062;-83
2021/10/25 01:55:55;;;;;;;56.20;39.40;;;;;;;0.16;92.35;100178.33;112794;1193;64458;-83
2021/10/25 01:58:22;;;;;;;59.10;40.10;;;;;;;0.15;92.32;100177.11;112662;1193;61018;-85
2021/10/25 02:00:49;;;;;;;59.80;40.70;;;;;;;0.15;92.39;100174.84;112693;1193;64026;-83
2021/10/25 02:03:16;;;;;;;58.30;40.10;;;;;;;0.14;92.37;100174.51;112638;1193;61052;-83
2021/10/25 02:05:43;;;;;;;53.60;38.20;;;;;;;0.13;92.38;100175.73;112662;1193;60940;-83
2021/10/25 02:08:10;;;;;;;56.80;39.00;;;;;;;0.10;92.33;100170.15;111846;1193;1002345;-86
2021/10/25 02:10:37;;;;;;;51.80;37.60;;;;;;;0.09;92.46;100163.69;112343;1193;61087;-85
2021/10/25 02:13:04;;;;;;;58.50;39.60;;;;;;;0.08;92.54;100155.84;112620;1192;63757;-85
2021/10/25 02:15:31;;;;;;;57.20;42.20;;;;;;;0.08;92.52;100154.09;112573;1193;61049;-85
2021/10/25 02:17:58;;;;;;;63.50;44.30;;;;;;;0.07;92.69;100151.46;112617;1192;60890;-85
2021/10/25 02:20:24;;;;;;;63.00;43.90;;;;;;;0.09;92.98;100145.69;112627;1192;65698;-83
2021/10/25 02:22:51;;;;;;;68.90;49.70;;;;;;;0.10;92.86;100144.45;112609;1192;60979;-83
2021/10/25 02:25:17;;;;;;;68.70;48.30;;;;;;;0.08;92.76;100145.34;112588;1194;63861;-84
2021/10/25 02:27:45;;;;;;;71.50;51.20;;;;;;;0.07;92.90;100140.11;112340;1193;61036;-83
2021/10/25 02:30:11;;;;;;;76.10;54.90;;;;;;;0.09;93.12;100138.02;112645;1192;61062;-83
2021/10/25 02:32:38;;;;;;;80.40;58.40;;;;;;;0.08;93.12;100138.52;112595;1192;60944;-85
2021/10/25 02:35:05;;;;;;;84.80;59.70;;;;;;;0.07;93.07;100136.45;112591;1193;61024;-83
2021/10/25 02:37:31;;;;;;;89.20;62.90;;;;;;;0.05;92.98;100142.05;112550;1192;63998;-85
2021/10/25 02:39:58;;;;;;;94.40;60.80;;;;;;;0.03;93.13;100142.92;112611;1192;61049;-82
2021/10/25 02:42:25;;;;;;;87.70;62.50;;;;;;;0.02;93.08;100140.14;112644;1193;61013;-84
2021/10/25 02:44:51;;;;;;;84.40;57.00;;;;;;;-0.02;92.98;100139.13;112599;1193;64513;-83
2021/10/25 02:47:18;;;;;;;100.10;69.30;;;;;;;-0.06;92.91;100139.84;112687;1192;61062;-84
2021/10/25 02:49:44;;;;;;;78.70;56.20;;;;;;;-0.08;93.00;100136.70;112602;1193;61404;-83
2021/10/25 02:52:11;;;;;;;71.80;51.40;;;;;;;-0.10;92.94;100132.34;112614;1193;61049;-83
2021/10/25 02:54:38;;;;;;;62.00;47.10;;;;;;;-0.14;92.94;100133.77;112621;1193;61433;-85
2021/10/25 02:57:05;;;;;;;58.40;45.90;;;;;;;-0.17;92.88;100134.82;112616;1193;66743;-84
2021/10/25 02:59:31;;;;;;;68.70;47.50;;;;;;;-0.22;92.88;100137.30;112568;1193;61023;-82
2021/10/25 03:01:58;;;;;;;66.50;49.90;;;;;;;-0.26;92.94;100136.80;112734;1192;64897;-82
2021/10/25 03:04:25;;;;;;;67.30;50.70;;;;;;;-0.27;93.13;100131.02;112743;1192;60950;-82
2021/10/25 03:06:51;;;;;;;79.80;57.10;;;;;;;-0.27;93.20;100123.86;112348;1193;61014;-83
2021/10/25 03:09:17;;;;;;;77.40;54.40;;;;;;;-0.26;93.30;100120.38;112663;1192;60988;-84
2021/10/25 03:11:44;;;;;;;70.30;52.60;;;;;;;-0.27;93.13;100119.52;112554;1192;60994;-79
2021/10/25 03:14:11;;;;;;;71.40;52.20;;;;;;;-0.30;93.12;100117.60;112606;1193;61032;-83
2021/10/25 03:16:37;;;;;;;66.90;50.90;;;;;;;-0.33;93.17;100115.88;112591;1193;60975;-82
2021/10/25 03:19:04;;;;;;;69.80;52.30;;;;;;;-0.35;93.08;100118.15;112668;1192;60979;-82
2021/10/25 03:21:30;;;;;;;66.50;47.90;;;;;;;-0.38;93.12;100121.30;112607;1192;64526;-82
2021/10/25 03:23:59;;;;;;;71.90;52.30;;;;;;;-0.39;93.14;100119.91;112587;1192;61020;-82
2021/10/25 03:26:26;;;;;;;69.50;50.30;;;;;;;-0.38;93.13;100119.04;112613;1193;62536;-83
2021/10/25 03:28:53;;;;;;;72.50;51.00;;;;;;;-0.39;93.07;100117.81;112344;1193;61001;-83
2021/10/25 03:31:21;;;;;;;66.60;50.90;;;;;;;-0.40;93.14;100110.14;112664;1193;60972;-83
2021/10/25 03:33:48;;;;;;;69.50;50.50;;;;;;;-0.41;93.16;100109.63;112614;1192;64452;-83
2021/10/25 03:36:17;;;;;;;75.70;54.90;;;;;;;-0.41;93.38;100106.66;112628;1193;61049;-83
2021/10/25 03:38:45;;;;;;;68.80;49.60;;;;;;;-0.40;93.52;100102.28;112683;1193;62584;-83
2021/10/25 03:41:17;;;;;;;74.80;52.20;;;;;;;-0.42;93.47;100103.86;112374;1193;61077;-83
2021/10/25 03:43:52;;;;;;;71.70;51.60;;;;;;;-0.42;93.64;100107.35;112603;1193;60988;-83
2021/10/25 03:46:24;;;;;;;78.80;53.40;;;;;;;-0.41;93.82;100104.38;112588;1193;64724;-83
2021/10/25 03:51:39;;;;;;;77.60;52.30;;;;;;;-0.39;93.92;100096.87;112596;1193;62789;-84
2021/10/25 04:02:29;;;;;;;75.20;52.30;;;;;;;-0.31;94.56;100070.98;112628;1193;61097;-83
2021/10/25 04:29:15;;;;;;;75.40;54.50;;;;;;;-0.35;94.55;100054.59;112563;1193;61044;-84
2021/10/25 04:31:41;;;;;;;72.50;54.20;;;;;;;-0.37;94.68;100054.42;112645;1193;62572;-84
2021/10/25 04:34:08;;;;;;;72.30;51.60;;;;;;;-0.39;94.62;100051.48;112567;1193;61020;-83
2021/10/25 04:36:34;;;;;;;65.90;49.40;;;;;;;-0.40;94.69;100049.04;112653;1192;60968;-82
2021/10/25 04:39:02;;;;;;;64.90;49.40;;;;;;;-0.40;94.81;100048.86;112673;1192;60940;-83
2021/10/25 04:41:29;;;;;;;73.90;49.40;;;;;;;-0.41;94.83;100045.02;112609;1192;61000;-82
2021/10/25 04:43:55;;;;;;;69.50;50.20;;;;;;;-0.40;95.01;100043.80;111808;1191;1002887;-84
2021/10/25 04:46:22;;;;;;;74.10;53.50;;;;;;;-0.37;94.99;100040.29;112631;1191;61089;-84
2021/10/25 04:48:48;;;;;;;71.00;48.40;;;;;;;-0.36;95.06;100036.27;112556;1192;60988;-84
2021/10/25 04:51:15;;;;;;;79.50;52.80;;;;;;;-0.34;95.21;100036.61;112608;1192;60984;-82
2021/10/25 04:53:41;;;;;;;65.50;47.30;;;;;;;-0.32;95.18;100032.73;112599;1192;60930;-82
2021/10/25 04:56:08;;;;;;;69.20;45.60;;;;;;;-0.31;95.20;100026.29;112555;1193;61059;-82
2021/10/25 04:58:35;;;;;;;62.30;46.20;;;;;;;-0.30;95.27;100029.42;112592;1192;61151;-82
2021/10/25 05:01:01;;;;;;;68.20;49.40;;;;;;;-0.29;95.34;100026.96;112642;1192;61017;-82
2021/10/25 05:03:29;;;;;;;69.70;48.90;;;;;;;-0.29;95.36;100024.00;112659;1192;64660;-82
2021/10/25 05:05:55;;;;;;;69.10;49.00;;;;;;;-0.29;95.36;100024.52;112686;1193;60992;-82
2021/10/25 05:08:26;;;;;;;66.60;46.70;;;;;;;-0.28;95.37;100028.71;112623;1192;60928;-83
2021/10/25 05:10:53;;;;;;;74.10;50.50;;;;;;;-0.28;95.29;100027.48;112605;1193;61035;-82
2021/10/25 05:13:19;;;;;;;71.10;48.80;;;;;;;-0.29;95.30;100026.27;112335;1192;61011;-82
2021/10/25 05:15:46;;;;;;;70.00;51.40;;;;;;;-0.29;95.32;100029.59;112369;1193;66187;-83
2021/10/25 05:18:13;;;;;;;77.40;52.60;;;;;;;-0.30;95.25;100030.29;112616;1193;61020;-83
2021/10/25 05:20:41;;;;;;;68.60;50.50;;;;;;;-0.30;95.34;100029.08;112651;1193;62794;-81
2021/10/25 05:23:10;;;;;;;74.60;51.10;;;;;;;-0.30;95.33;100028.02;112565;1192;61649;-81
2021/10/25 05:25:36;;;;;;;70.90;49.40;;;;;;;-0.30;95.46;100019.64;112625;1192;60905;-83
2021/10/25 05:28:03;;;;;;;73.60;49.10;;;;;;;-0.28;95.55;100018.05;112635;1192;60976;-81
2021/10/25 05:30:30;;;;;;;69.70;49.00;;;;;;;-0.26;95.54;100016.13;112669;1193;61050;-82
2021/10/25 05:32:57;;;;;;;61.90;45.30;;;;;;;-0.24;95.62;100020.30;112605;1192;63929;-81
2021/10/25 05:35:24;;;;;;;65.30;47.90;;;;;;;-0.21;95.51;100023.77;112618;1192;61026;-81
2021/10/25 05:37:50;;;;;;;65.30;45.20;;;;;;;-0.18;95.51;100021.66;112591;1188;61017;-81
2021/10/25 05:40:17;;;;;;;61.60;44.10;;;;;;;-0.16;95.52;100021.30;112561;1177;67079;-80
2021/10/25 05:42:43;;;;;;;62.90;40.50;;;;;;;-0.12;95.55;100021.09;112595;1193;69749;-81
2021/10/25 05:45:10;;;;;;;61.30;43.00;;;;;;;-0.08;95.63;100022.81;112592;1192;61065;-81
2021/10/25 05:47:37;;;;;;;64.30;39.80;;;;;;;-0.03;95.59;100026.45;112637;1191;61100;-81
2021/10/25 05:50:04;;;;;;;54.70;40.40;;;;;;;0.01;95.54;100025.52;112591;1192;61016;-82
2021/10/25 05:52:30;;;;;;;56.80;39.70;;;;;;;0.05;95.43;100015.91;112634;1193;66007;-81
2021/10/25 05:54:57;;;;;;;66.10;45.20;;;;;;;0.08;95.37;100013.79;112620;1192;61086;-81
2021/10/25 05:57:24;;;;;;;65.50;45.90;;;;;;;0.10;95.33;100018.30;112621;1193;61058;-81
2021/10/25 05:59:50;;;;;;;63.50;45.90;;;;;;;0.13;95.36;100026.33;112627;1193;60997;-82
2021/10/25 06:04:47;;;;;;;65.00;48.10;;;;;;;0.21;95.24;100022.59;112633;1192;65746;-83
2021/10/25 06:07:13;;;;;;;68.50;43.90;;;;;;;0.26;95.23;100017.99;112601;1192;60978;-81
2021/10/25 06:09:40;;;;;;;62.80;44.20;;;;;;;0.31;95.24;100020.75;112647;1192;63767;-81
2021/10/25 06:12:11;;;;;;;57.20;42.60;;;;;;;0.37;95.26;100024.55;112639;1192;61026;-81
2021/10/25 06:14:41;;;;;;;64.30;45.40;;;;;;;0.42;95.27;100028.17;112615;1192;61063;-82
2021/10/25 06:19:50;;;;;;;65.70;44.00;;;;;;;0.55;95.17;100026.13;112656;1192;61306;-83
2021/10/25 06:22:19;;;;;;;61.80;43.80;;;;;;;0.61;95.04;100029.56;112545;1193;72350;-83
2021/10/25 06:24:47;;;;;;;61.00;44.70;;;;;;;0.66;94.99;100023.05;112654;1192;60969;-81
2021/10/25 06:27:13;;;;;;;63.20;43.20;;;;;;;0.73;94.98;100022.27;112750;1193;61058;-82
2021/10/25 06:29:40;;;;;;;65.00;43.00;;;;;;;0.80;94.86;100022.20;112623;1193;65926;-82
2021/10/25 06:32:07;;;;;;;62.10;45.80;;;;;;;0.86;94.80;100022.14;112638;1192;61048;-82
2021/10/25 06:34:42;;;;;;;66.10;45.90;;;;;;;0.92;94.74;100026.45;112614;1193;64756;-83
2021/10/25 06:37:09;;;;;;;62.60;44.50;;;;;;;0.99;94.76;100024.45;112636;1192;61036;-82
2021/10/25 06:39:40;;;;;;;61.90;45.40;;;;;;;1.05;94.76;100026.83;112637;1191;61043;-82
2021/10/25 06:42:08;;;;;;;71.00;47.60;;;;;;;1.12;94.68;100032.16;112679;1192;64478;-82
2021/10/25 06:47:35;;;;;;;66.20;45.10;;;;;;;1.25;94.43;100024.83;112234;1193;63806;-82
2021/10/25 06:50:02;;;;;;;56.80;43.20;;;;;;;1.30;94.45;100024.58;112530;1192;61074;-82
2021/10/25 06:52:29;;;;;;;62.20;45.20;;;;;;;1.36;94.29;100026.79;112638;1193;61058;-84
2021/10/25 06:54:56;;;;;;;59.70;41.90;;;;;;;1.44;94.28;100026.86;112602;1193;66987;-83
2021/10/25 06:57:22;;;;;;;64.40;42.70;;;;;;;1.52;94.12;100020.98;112596;1192;61330;-79
2021/10/25 06:59:49;;;;;;;60.70;41.70;;;;;;;1.60;94.03;100020.51;112494;1193;63721;-80
2021/10/25 07:02:16;;;;;;;54.70;40.20;;;;;;;1.68;93.97;100022.85;112587;1191;61078;-81
2021/10/25 07:04:43;;;;;;;58.20;41.30;;;;;;;1.76;93.92;100024.33;112604;1192;61075;-79
2021/10/25 07:07:10;;;;;;;54.90;41.30;;;;;;;1.85;93.81;100025.41;112259;1192;66213;-80
2021/10/25 07:09:37;;;;;;;59.80;41.10;;;;;;;1.93;93.64;100021.42;112497;1193;60946;-78
2021/10/25 07:12:04;;;;;;;59.30;42.00;;;;;;;2.01;93.62;100020.79;112498;1193;64075;-78
2021/10/25 07:14:35;;;;;;;58.40;42.60;;;;;;;2.08;93.48;100019.45;112475;1192;60979;-76
2021/10/25 08:03:26;;;;;;;43.60;33.10;;;;;;;3.84;90.98;99990.55;112461;1193;61074;-76
2021/10/25 08:11:08;;;;;;;40.90;31.80;;;;;;;4.16;90.44;99985.02;112544;1192;61365;-75
2021/10/25 08:13:39;;;;;;;43.00;32.00;;;;;;;4.27;90.27;99986.32;112551;1193;65996;-75
2021/10/25 08:16:42;;;;;;;41.30;31.50;;;;;;;4.38;90.07;99988.15;112526;1193;60985;-75
2021/10/25 08:21:54;;;;;;;44.20;33.20;;;;;;;4.57;89.67;99975.15;112271;1192;61348;-76
2021/10/25 08:24:22;;;;;;;43.00;31.90;;;;;;;4.68;89.52;99973.64;112517;1193;61000;-76
2021/10/25 08:26:50;;;;;;;46.20;33.80;;;;;;;4.77;89.13;99974.98;112526;1192;64706;-75
2021/10/25 08:29:18;;;;;;;42.10;33.40;;;;;;;4.87;89.04;99973.65;112480;1192;61055;-75
2021/10/25 08:31:53;;;;;;;43.00;31.80;;;;;;;4.97;88.93;99970.73;112498;1193;64423;-76
2021/10/25 08:34:44;;;;;;;46.90;33.40;;;;;;;5.06;88.74;99973.64;112473;1193;61030;-76
2021/10/25 08:39:47;;;;;;;42.70;31.90;;;;;;;5.29;88.86;99970.34;112467;1193;61057;-76
2021/10/25 08:42:22;;;;;;;43.50;32.10;;;;;;;5.39;88.56;99969.52;112529;1193;60972;-76
2021/10/25 08:44:59;;;;;;;42.80;32.10;;;;;;;5.48;88.25;99967.46;112524;1193;63603;-76
2021/10/25 08:47:32;;;;;;;43.10;29.30;;;;;;;5.57;87.90;99965.77;112290;1192;61004;-77
2021/10/25 08:50:02;;;;;;;40.20;30.20;;;;;;;5.67;87.74;99967.21;112529;1193;60931;-75
2021/10/25 08:52:29;;;;;;;40.80;30.00;;;;;;;5.80;87.76;99958.35;112544;1193;65648;-77
2021/10/25 08:54:55;;;;;;;37.10;28.60;;;;;;;5.93;87.53;99958.46;112492;1193;61058;-76
2021/10/25 08:57:24;;;;;;;42.10;28.30;;;;;;;6.04;87.24;99960.45;112535;1193;62647;-77
2021/10/25 09:00:00;;;;;;;38.30;28.20;;;;;;;6.17;87.02;99958.61;112495;1192;61088;-75
2021/10/25 09:02:29;;;;;;;37.10;27.10;;;;;;;6.28;86.62;99959.64;112452;1193;61024;-77
2021/10/25 09:05:10;;;;;;;36.90;27.60;;;;;;;6.39;86.41;99952.92;112484;1176;66705;-76
2021/10/25 09:07:47;;;;;;;35.10;25.50;;;;;;;6.50;86.09;99949.90;112520;1193;61062;-76
2021/10/25 09:10:37;;;;;;;31.80;24.10;;;;;;;6.61;85.81;99943.50;112446;1193;73402;-76
2021/10/25 09:13:07;;;;;;;34.90;25.90;;;;;;;6.71;85.47;99943.13;112528;1191;61013;-76
2021/10/25 09:15:40;;;;;;;32.50;25.50;;;;;;;6.82;85.32;99937.78;112526;1192;61036;-76
2021/10/25 09:18:06;;;;;;;32.00;24.10;;;;;;;6.93;85.12;99932.62;112492;1177;66856;-75
2021/10/25 09:20:53;;;;;;;31.20;23.60;;;;;;;7.02;84.77;99928.73;112509;1193;61058;-75
2021/10/25 09:23:29;;;;;;;29.50;21.90;;;;;;;7.14;84.44;99918.40;112517;1193;63646;-75
2021/10/25 09:26:17;;;;;;;31.10;23.10;;;;;;;7.24;84.13;99914.10;112249;1192;61064;-76
2021/10/25 09:28:51;;;;;;;31.70;22.40;;;;;;;7.38;83.97;99913.39;112489;1192;60972;-76
2021/10/25 09:31:30;;;;;;;27.50;21.30;;;;;;;7.52;83.82;99911.80;112306;1193;64526;-76
2021/10/25 09:34:01;;;;;;;31.50;22.70;;;;;;;7.64;83.64;99912.40;112259;1193;61047;-76
2021/10/25 09:36:35;;;;;;;29.50;21.80;;;;;;;7.75;83.40;99911.23;112474;1192;62681;-76
2021/10/25 09:49:59;;;;;;;23.50;18.40;;;;;;;8.36;81.40;99907.63;112476;1192;62725;-76
2021/10/25 09:52:38;;;;;;;27.70;19.00;;;;;;;8.47;80.98;99908.44;112297;1192;61107;-76
2021/10/25 09:55:08;;;;;;;22.80;16.20;;;;;;;8.54;80.44;99904.57;112546;1177;61055;-75
2021/10/25 09:57:42;;;;;;;;;;;;;;;8.61;79.79;99905.65;112495;1192;65007;-75
2021/10/25 10:00:10;;;;;;;25.30;16.90;;;;;;;8.69;79.58;99899.13;112511;1192;60972;-75
2021/10/25 10:02:38;;;;;;;25.40;18.60;;;;;;;8.78;79.11;99896.42;112533;1192;62479;-76
2021/10/25 10:05:06;;;;;;;22.80;15.30;;;;;;;8.88;78.71;99896.15;112476;1192;61058;-75
2021/10/25 10:07:34;;;;;;;25.00;17.30;;;;;;;8.99;78.53;99888.89;112521;1192;61030;-76
2021/10/25 10:10:01;;;;;;;22.30;15.90;;;;;;;9.11;78.23;99889.74;112478;1192;66059;-76
2021/10/25 10:12:27;;;;;;;20.20;14.40;;;;;;;9.25;77.99;99887.68;112511;1193;61017;-76
2021/10/25 10:14:59;;;;;;;23.70;16.80;;;;;;;9.38;77.94;99878.55;112464;1192;62404;-76
2021/10/25 10:17:40;;;;;;;23.60;16.50;;;;;;;9.51;77.88;99877.94;112458;1193;61036;-76
2021/10/25 10:20:12;;;;;;;20.30;13.60;;;;;;;9.63;77.12;99873.41;112516;1192;61052;-75
2021/10/25 10:22:46;;;;;;;16.40;11.30;;;;;;;9.72;76.19;99871.40;112505;1192;66075;-76
2021/10/25 10:25:12;;;;;;;15.00;11.30;;;;;;;9.81;75.65;99866.34;112463;1192;61021;-76
2021/10/25 10:27:39;;;;;;;19.30;13.90;;;;;;;9.92;75.45;99865.61;112465;1192;61022;-74
2021/10/25 10:30:10;;;;;;;20.40;14.00;;;;;;;10.01;75.48;99865.02;112478;1192;61740;-77
2021/10/25 10:32:37;;;;;;;20.50;14.60;;;;;;;10.10;75.15;99862.59;112539;1192;60940;-77
2021/10/25 10:35:07;;;;;;;20.90;13.90;;;;;;;10.18;74.47;99858.45;112508;1193;65970;-75
2021/10/25 10:37:39;;;;;;;21.50;15.60;;;;;;;10.25;74.15;99853.28;112527;1192;61027;-76
2021/10/25 10:40:06;;;;;;;23.10;15.80;;;;;;;10.30;73.49;99855.17;112518;1193;62593;-76
2021/10/25 10:42:37;;;;;;;21.40;14.50;;;;;;;10.32;73.14;99851.18;112447;1192;61081;-77
2021/10/25 10:45:09;;;;;;;29.30;16.20;;;;;;;10.36;73.08;99849.55;112489;1191;61063;-76
2021/10/25 10:47:45;;;;;;;22.00;15.60;;;;;;;10.41;72.90;99846.64;112491;1192;66990;-75
2021/10/25 10:50:20;;;;;;;24.10;16.90;;;;;;;10.46;72.63;99840.14;112513;1193;60985;-75
2021/10/25 10:52:58;;;;;;;22.80;16.00;;;;;;;10.51;72.30;99835.77;112478;1193;63738;-75
2021/10/25 10:55:26;;;;;;;23.60;14.80;;;;;;;10.58;72.19;99837.89;112494;1193;61058;-75
2021/10/25 11:00:48;;;;;;;19.70;14.30;;;;;;;10.75;71.76;99834.52;112459;1192;67137;-74
2021/10/25 11:03:24;;;;;;;17.90;13.10;;;;;;;10.81;71.17;99838.27;112516;1192;60979;-76
2021/10/25 11:05:59;;;;;;;18.60;12.40;;;;;;;10.86;70.56;99831.42;112463;1192;65020;-77
2021/10/25 11:08:36;;;;;;;15.20;12.80;;;;;;;10.93;70.62;99830.66;112477;1193;61046;-75
2021/10/25 11:11:02;;;;;;;17.10;12.30;;;;;;;11.04;70.22;99827.21;112496;1192;60968;-76
2021/10/25 11:13:32;;;;;;;16.60;11.80;;;;;;;11.09;69.93;99824.46;112496;1191;60905;-75
2021/10/25 11:18:48;;;;;;;16.20;12.20;;;;;;;11.14;68.93;99820.81;112472;1193;63948;-76
2021/10/25 11:21:19;;;;;;;18.70;12.60;;;;;;;11.18;68.71;99820.92;112484;1192;61103;-77
2021/10/25 11:23:48;;;;;;;17.70;12.90;;;;;;;11.20;68.19;99821.00;112546;1192;60914;-76
2021/10/25 11:26:21;;;;;;;16.00;10.60;;;;;;;11.22;68.25;99814.33;112500;1192;64698;-75
2021/10/25 11:29:12;;;;;;;16.20;10.90;;;;;;;11.23;67.82;99813.88;112430;1191;60969;-76
2021/10/25 11:31:49;;;;;;;16.70;12.10;;;;;;;11.27;67.67;99811.36;112457;1192;63922;-76
2021/10/25 11:34:20;;;;;;;16.60;11.50;;;;;;;11.30;67.43;99805.30;112524;1192;61062;-76
2021/10/25 11:36:59;;;;;;;15.40;11.20;;;;;;;11.33;67.05;99802.64;112460;1193;60966;-77
2021/10/25 11:39:41;;;;;;;17.70;12.20;;;;;;;11.34;66.74;99798.30;112468;1191;66086;-77
2021/10/25 11:42:23;;;;;;;18.90;14.10;;;;;;;11.39;66.82;99799.83;112464;1193;60969;-90
2021/10/25 11:44:52;;;;;;;21.40;14.60;;;;;;;11.44;66.77;99797.42;112735;1184;62682;-86
2021/10/25 11:47:34;;;;;;;23.10;14.20;;;;;;;11.51;66.80;99791.86;112776;1191;61074;-87
2021/10/25 11:50:30;;;;;;;17.00;11.70;;;;;;;11.55;66.29;99786.60;112709;1192;60979;-84
2021/10/25 11:53:08;;;;;;;17.50;12.20;;;;;;;11.56;65.92;99782.98;112702;1192;64559;-86
2021/10/25 11:55:37;;;;;;;18.80;11.50;;;;;;;11.58;65.77;99782.33;112636;1193;61050;-83
2021/10/25 11:58:08;;;;;;;16.50;11.80;;;;;;;11.60;65.24;99778.14;112530;1193;62735;-86
2021/10/25 12:00:40;;;;;;;18.00;11.70;;;;;;;11.62;65.33;99774.41;112793;1193;61052;-84
2021/10/25 12:03:11;;;;;;;19.80;13.70;;;;;;;11.68;65.14;99772.73;112730;1193;61033;-85
2021/10/25 12:05:40;;;;;;;18.10;12.10;;;;;;;11.72;64.57;99767.63;112670;1192;64653;-85
2021/10/25 12:08:11;;;;;;;17.50;11.90;;;;;;;11.78;64.30;99765.34;112674;1193;61029;-76
2021/10/25 12:10:39;;;;;;;18.30;11.70;;;;;;;11.82;64.26;99768.46;112565;1192;62704;-76
2021/10/25 12:13:08;;;;;;;16.20;11.00;;;;;;;11.86;64.32;99769.32;112590;1193;61080;-76
2021/10/25 12:15:39;;;;;;;14.70;11.30;;;;;;;11.92;64.51;99767.36;112598;1192;61049;-76
2021/10/25 12:18:07;;;;;;;17.80;11.60;;;;;;;11.96;64.20;99764.30;112548;1193;65627;-77
2021/10/25 12:20:38;;;;;;;16.80;11.20;;;;;;;11.99;64.10;99761.23;112547;1193;60933;-75
2021/10/25 12:23:09;;;;;;;17.60;11.50;;;;;;;12.03;64.14;99756.35;112568;1193;62338;-75
2021/10/25 12:25:36;;;;;;;15.00;10.20;;;;;;;12.07;64.02;99752.38;112568;1193;61071;-75
2021/10/25 12:28:20;;;;;;;15.50;11.30;;;;;;;12.11;63.70;99748.42;112572;1193;61042;-75
2021/10/25 12:30:50;;;;;;;16.80;10.40;;;;;;;12.17;63.73;99750.73;112502;1192;65816;-75
2021/10/25 12:33:23;;;;;;;16.70;10.30;;;;;;;12.20;63.30;99753.92;112643;1193;61049;-76
2021/10/25 12:35:50;;;;;;;16.20;10.60;;;;;;;12.22;62.44;99749.00;112497;1193;64063;-76
2021/10/25 12:38:20;;;;;;;14.40;10.50;;;;;;;12.24;61.97;99743.35;112540;1193;61046;-77
2021/10/25 12:41:01;;;;;;;15.50;10.70;;;;;;;12.27;61.88;99742.27;112530;1183;61083;-77
2021/10/25 12:43:40;;;;;;;15.70;10.80;;;;;;;12.29;61.73;99739.81;112165;1192;67232;-76
2021/10/25 12:46:10;;;;;;;16.60;11.20;;;;;;;12.31;61.77;99732.05;112528;1191;61722;-76
2021/10/25 12:48:41;;;;;;;14.50;10.80;;;;;;;12.35;61.89;99729.84;112577;1192;64099;-77
2021/10/25 12:51:08;;;;;;;16.70;11.50;;;;;;;12.40;61.73;99725.97;112564;1192;61052;-74
2021/10/25 12:53:35;;;;;;;15.00;11.60;;;;;;;12.43;61.64;99718.11;112543;1192;61081;-75
2021/10/25 12:56:02;;;;;;;15.50;10.80;;;;;;;12.45;61.26;99714.96;112603;1192;64334;-77
2021/10/25 12:58:29;;;;;;;14.60;11.30;;;;;;;12.47;60.93;99710.66;112592;1191;61036;-76
2021/10/25 13:01:15;;;;;;;17.20;10.80;;;;;;;12.52;60.94;99705.60;112507;1192;63882;-76
2021/10/25 13:03:51;;;;;;;15.00;9.80;;;;;;;12.57;60.95;99705.98;112522;1192;61045;-76
2021/10/25 13:06:18;;;;;;;13.30;10.00;;;;;;;12.59;60.49;99699.11;112530;1192;61049;-76
2021/10/25 13:08:45;;;;;;;16.30;10.40;;;;;;;12.60;60.22;99694.02;112567;1193;64908;-76
2021/10/25 13:11:13;;;;;;;15.60;10.40;;;;;;;12.61;60.10;99687.17;112303;1193;61059;-77
2021/10/25 13:13:44;;;;;;;13.50;10.60;;;;;;;12.63;60.24;99684.89;112575;1192;63860;-77
2021/10/25 13:16:17;;;;;;;13.80;9.90;;;;;;;12.65;60.02;99682.44;112593;1193;61036;-78